createdAt,value
2018-08-28T00:02:15.084Z,56.99
2018-08-28T00:04:42.680Z,57.02
2018-08-28T00:07:10.288Z,56.94
2018-08-28T00:09:37.956Z,57.31
2018-08-28T00:12:05.692Z,57.33
2018-08-28T00:14:33.287Z,57.33
2018-08-28T00:17:00.938Z,57.90
2018-08-28T00:19:28.528Z,57.84
2018-08-28T00:21:56.244Z,58.13
2018-08-28T00:24:23.855Z,57.19
2018-08-28T00:26:51.464Z,57.32
2018-08-28T00:29:19.072Z,57.50
2018-08-28T00:31:46.724Z,57.26
2018-08-28T00:34:14.303Z,56.89
2018-08-28T00:36:41.949Z,57.23
2018-08-28T00:39:09.643Z,57.57
2018-08-28T00:41:37.219Z,57.80
2018-08-28T00:44:04.836Z,57.34
2018-08-28T00:46:32.441Z,57.76
2018-08-28T00:49:00.028Z,57.66
2018-08-28T00:51:27.684Z,57.77
2018-08-28T00:53:55.340Z,57.93
2018-08-28T00:56:22.906Z,58.24
2018-08-28T00:58:50.513Z,58.14
2018-08-28T01:01:18.096Z,57.87
2018-08-28T01:03:45.679Z,58.28
2018-08-28T01:06:13.244Z,57.83
2018-08-28T01:08:41.000Z,57.20
2018-08-28T01:11:09.044Z,57.17
2018-08-28T01:13:36.612Z,57.47
2018-08-28T01:16:04.356Z,57.75
2018-08-28T01:18:31.938Z,57.90
2018-08-28T01:20:59.512Z,58.24
2018-08-28T01:23:27.167Z,58.56
2018-08-28T01:25:54.756Z,57.78
2018-08-28T01:28:22.329Z,57.62
2018-08-28T01:30:49.981Z,57.96
2018-08-28T01:33:17.599Z,57.58
2018-08-28T01:35:45.195Z,57.55
2018-08-28T01:38:12.800Z,57.56
2018-08-28T01:40:40.360Z,57.04
2018-08-28T01:43:13.556Z,57.89
2018-08-28T01:45:41.170Z,57.92
2018-08-28T01:48:08.750Z,58.36
2018-08-28T01:50:36.466Z,58.21
2018-08-28T01:53:04.084Z,58.28
2018-08-28T01:55:31.723Z,58.54
2018-08-28T01:57:59.359Z,58.90
2018-08-28T02:00:26.970Z,58.98
2018-08-28T02:02:54.557Z,58.46
2018-08-28T02:05:22.171Z,58.64
2018-08-28T02:07:49.796Z,58.02
2018-08-28T02:10:17.412Z,57.90
2018-08-28T02:12:45.052Z,57.50
2018-08-28T02:15:12.681Z,57.77
2018-08-28T02:17:40.287Z,57.94
2018-08-28T02:20:08.016Z,57.96
2018-08-28T02:22:35.718Z,58.75
2018-08-28T02:25:03.468Z,58.67
2018-08-28T02:27:31.124Z,59.44
2018-08-28T02:29:58.736Z,58.98
2018-08-28T02:32:26.371Z,58.90
2018-08-28T02:34:54.055Z,58.44
2018-08-28T02:37:21.684Z,57.99
2018-08-28T02:39:49.336Z,58.13
2018-08-28T02:42:17.004Z,58.40
2018-08-28T02:44:44.701Z,58.53
2018-08-28T02:47:12.331Z,58.10
2018-08-28T02:49:39.987Z,58.23
2018-08-28T02:52:07.610Z,58.13
2018-08-28T02:54:35.226Z,58.32
2018-08-28T02:57:02.918Z,58.03
2018-08-28T02:59:30.544Z,57.61
2018-08-28T03:01:58.188Z,58.09
2018-08-28T03:04:25.860Z,58.27
2018-08-28T03:06:53.483Z,57.77
2018-08-28T03:09:21.127Z,57.95
2018-08-28T03:11:48.761Z,57.98
2018-08-28T03:14:16.383Z,57.84
2018-08-28T03:16:44.015Z,57.70
2018-08-28T03:19:11.683Z,58.60
2018-08-28T03:21:39.395Z,58.05
2018-08-28T03:24:07.024Z,58.44
2018-08-28T03:26:34.736Z,57.99
2018-08-28T03:29:02.453Z,58.70
2018-08-28T03:31:30.304Z,58.29
2018-08-28T03:33:57.983Z,58.56
2018-08-28T03:36:25.599Z,58.55
2018-08-28T03:38:53.172Z,58.26
2018-08-28T03:41:20.856Z,58.83
2018-08-28T03:43:48.478Z,58.35
2018-08-28T03:46:16.100Z,58.49
2018-08-28T03:48:43.764Z,59.15
2018-08-28T03:51:11.407Z,58.77
2018-08-28T03:53:39.043Z,58.91
2018-08-28T03:56:07.043Z,59.11
2018-08-28T03:58:34.688Z,58.68
2018-08-28T04:01:02.537Z,58.90
2018-08-28T04:03:30.262Z,59.32
2018-08-28T04:05:57.886Z,58.96
2018-08-28T04:08:25.542Z,58.71
2018-08-28T04:10:53.200Z,59.07
2018-08-28T04:13:20.900Z,59.63
2018-08-28T04:15:48.512Z,59.72
2018-08-28T04:18:16.140Z,59.57
2018-08-28T04:20:43.756Z,59.73
2018-08-28T04:23:11.406Z,59.35
2018-08-28T04:25:39.048Z,59.80
2018-08-28T04:28:06.683Z,59.61
2018-08-28T04:30:34.416Z,60.14
2018-08-28T04:33:02.045Z,60.44
2018-08-28T04:35:29.643Z,61.11
2018-08-28T04:37:57.294Z,60.76
2018-08-28T04:40:24.949Z,60.67
2018-08-28T04:42:52.591Z,60.51
2018-08-28T04:45:20.232Z,60.71
2018-08-28T04:47:47.854Z,60.92
2018-08-28T04:50:15.503Z,61.33
2018-08-28T04:52:43.113Z,62.11
2018-08-28T04:55:10.770Z,61.65
2018-08-28T04:57:38.383Z,61.56
2018-08-28T05:00:06.980Z,61.43
2018-08-28T05:02:35.923Z,61.81
2018-08-28T05:05:05.496Z,61.52
2018-08-28T05:07:33.256Z,61.45
2018-08-28T05:10:00.922Z,61.22
2018-08-28T05:12:28.563Z,61.68
2018-08-28T05:14:56.238Z,61.42
2018-08-28T05:17:24.224Z,61.83
2018-08-28T05:19:51.935Z,61.50
2018-08-28T05:22:19.580Z,61.54
2018-08-28T05:24:47.266Z,61.47
2018-08-28T05:27:15.069Z,61.53
2018-08-28T05:29:42.763Z,61.33
2018-08-28T05:32:10.398Z,60.81
2018-08-28T05:34:38.104Z,61.00
2018-08-28T05:37:05.927Z,61.22
2018-08-28T05:39:33.591Z,60.81
2018-08-28T05:42:01.231Z,61.07
2018-08-28T05:44:28.865Z,60.55
2018-08-28T05:46:56.631Z,60.20
2018-08-28T05:49:24.286Z,60.18
2018-08-28T05:51:51.944Z,59.90
2018-08-28T05:54:19.588Z,59.73
2018-08-28T05:56:47.210Z,59.01
2018-08-28T05:59:14.961Z,58.97
2018-08-28T06:01:42.775Z,58.74
2018-08-28T06:04:10.471Z,58.67
2018-08-28T06:06:38.090Z,58.32
2018-08-28T06:09:06.136Z,58.48
2018-08-28T06:11:33.766Z,58.21
2018-08-28T06:14:01.471Z,57.95
2018-08-28T06:16:29.136Z,57.48
2018-08-28T06:18:56.855Z,57.65
2018-08-28T06:21:24.715Z,57.89
2018-08-28T06:23:52.412Z,57.78
2018-08-28T06:26:20.038Z,57.76
2018-08-28T06:28:47.737Z,58.24
2018-08-28T06:31:15.385Z,58.04
2018-08-28T06:33:42.996Z,57.44
2018-08-28T06:36:10.607Z,57.19
2018-08-28T06:38:38.281Z,56.44
2018-08-28T06:41:06.047Z,56.04
2018-08-28T06:43:33.725Z,56.11
2018-08-28T06:46:01.356Z,55.84
2018-08-28T06:48:28.983Z,54.74
2018-08-28T06:50:56.621Z,53.13
2018-08-28T06:53:24.272Z,52.76
2018-08-28T06:55:52.131Z,52.74
2018-08-28T06:58:19.740Z,51.96
2018-08-28T07:00:47.399Z,50.96
2018-08-28T07:03:15.002Z,50.87
2018-08-28T07:05:42.707Z,50.21
2018-08-28T07:08:10.393Z,49.85
2018-08-28T07:10:38.000Z,49.41
2018-08-28T07:13:05.703Z,48.71
2018-08-28T07:15:33.387Z,48.38
2018-08-28T07:18:01.016Z,47.75
2018-08-28T07:20:28.699Z,47.41
2018-08-28T07:22:56.380Z,47.13
2018-08-28T07:25:24.021Z,46.73
2018-08-28T07:27:51.667Z,46.68
2018-08-28T07:30:19.367Z,45.50
2018-08-28T07:32:46.995Z,44.16
2018-08-28T07:35:14.731Z,43.36
2018-08-28T07:37:42.432Z,43.27
2018-08-28T07:40:10.091Z,43.30
2018-08-28T07:42:37.726Z,43.94
2018-08-28T07:45:05.600Z,44.00
2018-08-28T07:47:33.195Z,44.06
2018-08-28T07:50:00.856Z,44.34
2018-08-28T07:52:28.555Z,43.03
2018-08-28T07:54:56.176Z,42.57
2018-08-28T07:57:23.815Z,42.87
2018-08-28T07:59:51.466Z,42.40
2018-08-28T08:02:19.095Z,42.36
2018-08-28T08:04:46.725Z,42.73
2018-08-28T08:07:14.369Z,42.58
2018-08-28T08:09:42.012Z,42.02
2018-08-28T08:12:09.664Z,41.96
2018-08-28T08:14:37.366Z,41.05
2018-08-28T08:17:05.045Z,41.71
2018-08-28T08:19:32.692Z,41.50
2018-08-28T08:22:00.357Z,41.78
2018-08-28T08:24:27.986Z,42.31
2018-08-28T08:26:55.615Z,42.55
2018-08-28T08:29:23.264Z,42.11
2018-08-28T08:31:50.894Z,42.34
2018-08-28T08:34:18.521Z,42.55
2018-08-28T08:36:46.244Z,43.05
2018-08-28T08:39:13.850Z,42.72
2018-08-28T08:41:41.490Z,42.95
2018-08-28T08:44:09.181Z,42.52
2018-08-28T08:46:36.923Z,42.78
2018-08-28T08:49:04.648Z,42.97
2018-08-28T08:51:32.384Z,43.20
2018-08-28T08:54:00.050Z,42.42
2018-08-28T08:56:27.697Z,41.53
2018-08-28T08:58:55.403Z,41.97
2018-08-28T09:01:23.088Z,41.54
2018-08-28T09:03:50.717Z,40.67
2018-08-28T09:06:18.400Z,39.58
2018-08-28T09:08:46.021Z,39.16
2018-08-28T09:11:13.767Z,39.45
2018-08-28T09:13:41.428Z,38.77
2018-08-28T09:16:09.054Z,37.66
2018-08-28T09:18:36.676Z,37.00
2018-08-28T09:21:04.321Z,36.91
2018-08-28T09:23:31.935Z,36.64
2018-08-28T09:25:59.548Z,35.81
2018-08-28T09:28:27.206Z,35.96
2018-08-28T09:30:54.834Z,35.48
2018-08-28T09:33:22.492Z,34.78
2018-08-28T09:35:50.161Z,35.50
2018-08-28T09:38:17.884Z,34.10
2018-08-28T09:40:45.456Z,32.40
2018-08-28T09:43:13.111Z,30.92
2018-08-28T09:45:40.781Z,30.03
2018-08-28T09:48:08.433Z,28.96
2018-08-28T09:50:36.105Z,28.86
2018-08-28T09:53:03.731Z,27.67
2018-08-28T09:55:31.367Z,27.40
2018-08-28T09:57:58.999Z,28.75
2018-08-28T10:00:26.624Z,29.55
2018-08-28T10:02:54.433Z,29.03
2018-08-28T10:05:22.167Z,28.41
2018-08-28T10:07:50.172Z,27.85
2018-08-28T10:10:17.789Z,26.61
2018-08-28T10:12:45.459Z,26.57
2018-08-28T10:15:13.149Z,27.59
2018-08-28T10:17:41.012Z,26.31
2018-08-28T10:20:08.803Z,26.54
2018-08-28T10:22:36.562Z,26.70
2018-08-28T10:25:04.224Z,26.50
2018-08-28T10:27:31.986Z,26.18
2018-08-28T10:29:59.661Z,26.56
2018-08-28T10:32:27.228Z,27.77
2018-08-28T10:34:54.979Z,28.67
2018-08-28T10:37:22.632Z,28.99
2018-08-28T10:39:50.261Z,29.16
2018-08-28T10:42:17.923Z,28.26
2018-08-28T10:44:45.536Z,26.73
2018-08-28T10:47:13.162Z,27.52
2018-08-28T10:49:40.944Z,27.75
2018-08-28T10:52:08.679Z,27.66
2018-08-28T10:54:36.293Z,26.62
2018-08-28T10:57:03.997Z,27.05
2018-08-28T10:59:31.612Z,27.78
2018-08-28T11:01:59.255Z,28.79
2018-08-28T11:04:27.036Z,29.31
2018-08-28T11:06:54.639Z,29.18
2018-08-28T11:09:22.244Z,29.60
2018-08-28T11:11:49.918Z,29.69
2018-08-28T11:14:17.580Z,27.61
2018-08-28T11:16:45.202Z,26.57
2018-08-28T11:19:12.873Z,26.16
2018-08-28T11:21:40.488Z,26.25
2018-08-28T11:24:08.115Z,27.04
2018-08-28T11:26:35.775Z,27.20
2018-08-28T11:29:03.415Z,27.88
2018-08-28T11:31:31.056Z,28.29
2018-08-28T11:33:58.708Z,29.32
2018-08-28T11:36:26.401Z,29.22
2018-08-28T11:38:54.031Z,29.61
2018-08-28T11:41:21.811Z,29.93
2018-08-28T11:43:49.423Z,29.52
2018-08-28T11:46:17.071Z,29.97
2018-08-28T11:48:44.721Z,29.92
2018-08-28T11:51:12.336Z,29.45
2018-08-28T11:53:39.978Z,28.86
2018-08-28T11:56:07.671Z,28.09
2018-08-28T11:58:35.306Z,27.88
2018-08-28T12:01:02.937Z,27.52
2018-08-28T12:03:30.626Z,26.87
2018-08-28T12:05:58.255Z,26.34
2018-08-28T12:08:25.894Z,26.62
2018-08-28T12:10:53.564Z,25.99
2018-08-28T12:13:21.194Z,26.02
2018-08-28T12:15:48.801Z,25.24
2018-08-28T12:18:16.515Z,24.92
2018-08-28T12:20:44.204Z,24.14
2018-08-28T12:23:11.799Z,24.80
2018-08-28T12:25:39.504Z,25.26
2018-08-28T12:28:07.172Z,24.66
2018-08-28T12:30:34.818Z,23.83
2018-08-28T12:33:02.444Z,24.31
2018-08-28T12:35:30.081Z,23.47
2018-08-28T12:37:57.676Z,24.15
2018-08-28T12:40:25.376Z,25.37
2018-08-28T12:42:53.026Z,25.22
2018-08-28T12:45:20.651Z,25.08
2018-08-28T12:47:48.337Z,24.30
2018-08-28T12:50:15.974Z,23.52
2018-08-28T12:52:43.603Z,23.54
2018-08-28T12:55:11.293Z,24.12
2018-08-28T12:57:38.943Z,24.75
2018-08-28T13:00:06.664Z,24.98
2018-08-28T13:02:34.407Z,24.73
2018-08-28T13:05:02.017Z,23.67
2018-08-28T13:07:29.766Z,22.45
2018-08-28T13:09:57.348Z,20.63
2018-08-28T13:12:24.964Z,18.78
2018-08-28T13:14:52.731Z,17.50
2018-08-28T13:17:20.283Z,16.88
2018-08-28T13:19:48.054Z,16.44
2018-08-28T13:22:15.682Z,16.65
2018-08-28T13:24:43.340Z,16.31
2018-08-28T13:27:10.974Z,15.54
2018-08-28T13:29:38.654Z,15.64
2018-08-28T13:32:06.356Z,15.41
2018-08-28T13:34:33.988Z,15.90
2018-08-28T13:37:01.628Z,16.63
2018-08-28T13:39:29.261Z,16.46
2018-08-28T13:41:56.877Z,15.94
2018-08-28T13:44:24.475Z,14.43
2018-08-28T13:46:52.184Z,15.00
2018-08-28T13:49:19.821Z,15.46
2018-08-28T13:51:47.513Z,15.75
2018-08-28T13:54:15.246Z,15.18
2018-08-28T13:56:42.835Z,14.90
2018-08-28T13:59:10.657Z,14.46
2018-08-28T14:01:38.288Z,14.72
2018-08-28T14:04:05.918Z,14.49
2018-08-28T14:06:33.762Z,14.45
2018-08-28T14:09:01.451Z,14.78
2018-08-28T14:11:29.066Z,14.63
2018-08-28T14:13:56.785Z,14.98
2018-08-28T14:16:24.423Z,15.14
2018-08-28T14:18:52.063Z,14.68
2018-08-28T14:21:19.760Z,14.98
2018-08-28T14:23:47.471Z,14.52
2018-08-28T14:26:15.172Z,14.82
2018-08-28T14:28:42.874Z,14.40
2018-08-28T14:31:10.570Z,14.81
2018-08-28T14:33:38.224Z,14.73
2018-08-28T14:36:05.845Z,15.03
2018-08-28T14:38:33.552Z,15.29
2018-08-28T14:41:01.204Z,14.83
2018-08-28T14:43:28.835Z,15.06
2018-08-28T14:45:56.484Z,14.95
2018-08-28T14:48:24.128Z,15.07
2018-08-28T14:50:51.777Z,15.35
2018-08-28T14:53:19.460Z,15.52
2018-08-28T14:55:47.099Z,15.24
2018-08-28T14:58:14.708Z,15.71
2018-08-28T15:00:42.400Z,15.21
2018-08-28T15:03:10.031Z,15.93
2018-08-28T15:05:37.760Z,15.45
2018-08-28T15:08:05.436Z,15.96
2018-08-28T15:10:33.049Z,16.43
2018-08-28T15:13:00.691Z,16.74
2018-08-28T15:15:28.344Z,16.49
2018-08-28T15:17:56.007Z,16.11
2018-08-28T15:20:23.660Z,17.03
2018-08-28T15:22:51.314Z,16.98
2018-08-28T15:25:18.924Z,17.55
2018-08-28T15:27:46.555Z,17.87
2018-08-28T15:30:14.217Z,17.89
2018-08-28T15:32:41.909Z,17.50
2018-08-28T15:35:09.570Z,17.75
2018-08-28T15:37:37.235Z,18.20
2018-08-28T15:40:05.045Z,18.57
2018-08-28T15:42:32.786Z,18.88
2018-08-28T15:45:00.545Z,20.06
2018-08-28T15:47:28.148Z,19.93
2018-08-28T15:49:55.756Z,20.13
2018-08-28T15:52:23.424Z,20.42
2018-08-28T15:54:51.047Z,21.16
2018-08-28T15:57:18.664Z,21.30
2018-08-28T15:59:46.372Z,22.80
2018-08-28T16:02:14.010Z,23.19
2018-08-28T16:04:41.685Z,23.60
2018-08-28T16:07:09.346Z,24.40
2018-08-28T16:09:36.979Z,24.42
2018-08-28T16:12:04.665Z,25.10
2018-08-28T16:14:32.308Z,26.07
2018-08-28T16:16:59.942Z,26.23
2018-08-28T16:19:27.569Z,26.61
2018-08-28T16:21:57.128Z,27.27
2018-08-28T16:24:24.732Z,28.33
2018-08-28T16:26:52.855Z,28.27
2018-08-28T16:29:20.551Z,28.50
2018-08-28T16:31:48.194Z,28.59
2018-08-28T16:34:15.791Z,28.72
2018-08-28T16:36:43.442Z,29.03
2018-08-28T16:39:11.089Z,29.69
2018-08-28T16:41:38.743Z,29.87
2018-08-28T16:44:06.807Z,29.79
2018-08-28T16:46:34.870Z,30.08
2018-08-28T16:49:02.546Z,30.54
2018-08-28T16:51:30.188Z,30.46
2018-08-28T16:53:57.833Z,30.94
2018-08-28T16:56:25.452Z,30.79
2018-08-28T16:58:53.147Z,31.25
2018-08-28T17:01:21.045Z,30.78
2018-08-28T17:03:48.667Z,31.52
2018-08-28T17:06:16.394Z,31.59
2018-08-28T17:08:44.115Z,31.94
2018-08-28T17:11:11.783Z,32.36
2018-08-28T17:13:39.440Z,32.28
2018-08-28T17:16:07.045Z,32.89
2018-08-28T17:18:34.673Z,33.09
2018-08-28T17:21:02.337Z,33.53
2018-08-28T17:23:29.979Z,33.34
2018-08-28T17:25:57.596Z,33.75
2018-08-28T17:28:25.360Z,33.62
2018-08-28T17:30:53.014Z,34.17
2018-08-28T17:33:20.745Z,34.53
2018-08-28T17:35:48.372Z,34.30
2018-08-28T17:38:16.036Z,34.46
2018-08-28T17:40:43.781Z,34.94
2018-08-28T17:43:11.431Z,35.03
2018-08-28T17:45:39.128Z,34.89
2018-08-28T17:48:06.776Z,35.15
2018-08-28T17:50:34.433Z,35.11
2018-08-28T17:53:02.068Z,35.01
2018-08-28T17:55:29.705Z,35.65
2018-08-28T17:57:57.373Z,36.24
2018-08-28T18:00:25.040Z,36.15
2018-08-28T18:02:52.683Z,36.25
2018-08-28T18:05:20.336Z,36.52
2018-08-28T18:07:48.002Z,36.62
2018-08-28T18:10:15.644Z,36.37
2018-08-28T18:12:43.376Z,36.83
2018-08-28T18:15:11.016Z,36.61
2018-08-28T18:17:38.711Z,37.01
2018-08-28T18:20:06.439Z,36.89
2018-08-28T18:22:34.186Z,37.03
2018-08-28T18:25:01.748Z,37.70
2018-08-28T18:27:29.422Z,37.61
2018-08-28T18:29:57.193Z,37.74
2018-08-28T18:32:24.826Z,38.23
2018-08-28T18:34:52.483Z,38.22
2018-08-28T18:37:20.118Z,38.26
2018-08-28T18:39:47.771Z,38.17
2018-08-28T18:42:15.443Z,38.50
2018-08-28T18:44:43.171Z,38.81
2018-08-28T18:47:10.888Z,39.11
2018-08-28T18:49:38.574Z,39.50
2018-08-28T18:52:06.222Z,39.72
2018-08-28T18:54:33.843Z,39.62
2018-08-28T18:57:01.530Z,39.57
2018-08-28T18:59:29.157Z,40.49
2018-08-28T19:01:56.790Z,40.12
2018-08-28T19:04:24.471Z,39.54
2018-08-28T19:06:52.099Z,39.95
2018-08-28T19:09:19.913Z,39.71
2018-08-28T19:11:47.443Z,40.30
2018-08-28T19:14:15.080Z,40.43
2018-08-28T19:16:42.715Z,40.36
2018-08-28T19:19:11.194Z,40.42
2018-08-28T19:21:38.903Z,40.43
2018-08-28T19:24:06.887Z,40.64
2018-08-28T19:26:34.591Z,40.17
2018-08-28T19:29:02.238Z,40.07
2018-08-28T19:31:29.898Z,40.15
2018-08-28T19:33:57.552Z,39.98
2018-08-28T19:36:25.195Z,39.55
2018-08-28T19:38:52.894Z,39.83
2018-08-28T19:41:20.613Z,39.66
2018-08-28T19:43:48.445Z,39.80
2018-08-28T19:46:16.107Z,39.94
2018-08-28T19:48:43.770Z,39.69
2018-08-28T19:51:11.388Z,39.90
2018-08-28T19:53:39.112Z,39.48
2018-08-28T19:56:06.795Z,39.84
2018-08-28T19:58:34.423Z,39.45
2018-08-28T20:01:02.080Z,39.26
2018-08-28T20:03:29.751Z,39.83
2018-08-28T20:05:57.379Z,40.26
2018-08-28T20:08:25.028Z,39.92
2018-08-28T20:10:52.806Z,40.68
2018-08-28T20:13:20.673Z,40.42
2018-08-28T20:15:48.323Z,40.50
2018-08-28T20:18:16.013Z,40.33
2018-08-28T20:20:43.703Z,40.50
2018-08-28T20:23:11.304Z,40.52
2018-08-28T20:25:38.980Z,41.12
2018-08-28T20:28:06.618Z,41.36
2018-08-28T20:30:34.303Z,41.65
2018-08-28T20:33:02.060Z,41.18
2018-08-28T20:35:29.711Z,41.83
2018-08-28T20:37:57.353Z,42.11
2018-08-28T20:40:25.051Z,41.78
2018-08-28T20:42:52.703Z,41.74
2018-08-28T20:45:20.328Z,42.27
2018-08-28T20:47:47.981Z,42.33
2018-08-28T20:50:15.616Z,42.65
2018-08-28T20:52:43.228Z,42.52
2018-08-28T20:55:10.880Z,42.76
2018-08-28T20:57:38.477Z,43.02
2018-08-28T21:00:06.584Z,42.88
2018-08-28T21:02:34.223Z,42.82
2018-08-28T21:05:01.864Z,42.68
2018-08-28T21:07:29.576Z,43.20
2018-08-28T21:09:57.219Z,43.19
2018-08-28T21:12:25.062Z,43.29
2018-08-28T21:14:52.682Z,43.29
2018-08-28T21:17:20.348Z,42.89
2018-08-28T21:19:47.959Z,43.04
2018-08-28T21:22:15.579Z,43.33
2018-08-28T21:24:43.260Z,43.96
2018-08-28T21:27:10.955Z,43.81
2018-08-28T21:29:38.587Z,43.88
2018-08-28T21:32:06.359Z,44.08
2018-08-28T21:34:33.995Z,44.49
2018-08-28T21:37:01.676Z,44.53
2018-08-28T21:39:29.442Z,44.23
2018-08-28T21:41:57.079Z,44.75
2018-08-28T21:44:24.689Z,44.41
2018-08-28T21:46:52.351Z,44.55
2018-08-28T21:49:19.997Z,44.77
2018-08-28T21:51:47.629Z,44.69
2018-08-28T21:54:15.289Z,44.90
2018-08-28T21:56:42.903Z,45.51
2018-08-28T21:59:10.542Z,45.20
2018-08-28T22:01:38.203Z,45.27
2018-08-28T22:04:05.820Z,45.55
2018-08-28T22:06:39.161Z,45.34
2018-08-28T22:09:06.851Z,45.39
2018-08-28T22:11:34.928Z,45.45
2018-08-28T22:14:02.659Z,45.67
2018-08-28T22:16:30.311Z,45.57
2018-08-28T22:18:58.226Z,45.49
2018-08-28T22:21:25.886Z,45.70
2018-08-28T22:23:53.539Z,45.65
2018-08-28T22:26:21.203Z,45.69
2018-08-28T22:28:48.852Z,45.98
2018-08-28T22:31:16.480Z,45.59
2018-08-28T22:33:44.131Z,45.68
2018-08-28T22:36:11.833Z,46.01
2018-08-28T22:38:39.459Z,46.04
2018-08-28T22:41:07.148Z,46.17
2018-08-28T22:43:34.790Z,46.56
2018-08-28T22:46:02.447Z,46.57
2018-08-28T22:48:30.063Z,46.43
2018-08-28T22:50:57.716Z,46.81
2018-08-28T22:53:25.361Z,46.55
2018-08-28T22:55:52.986Z,46.83
2018-08-28T22:58:20.630Z,47.00
2018-08-28T23:00:48.262Z,47.00
2018-08-28T23:03:15.898Z,47.25
2018-08-28T23:05:43.539Z,46.90
2018-08-28T23:08:11.172Z,46.84
2018-08-28T23:10:39.849Z,46.47
2018-08-28T23:13:07.521Z,46.10
2018-08-28T23:15:35.157Z,46.41
2018-08-28T23:18:02.800Z,46.26
2018-08-28T23:20:30.495Z,45.57
2018-08-28T23:22:58.127Z,44.69
2018-08-28T23:25:25.732Z,45.71
2018-08-28T23:27:53.395Z,45.80
2018-08-28T23:30:21.024Z,45.59
2018-08-28T23:32:48.676Z,45.73
2018-08-28T23:35:16.320Z,45.78
2018-08-28T23:37:43.978Z,45.76
2018-08-28T23:40:11.627Z,45.47
2018-08-28T23:42:39.257Z,46.07
2018-08-28T23:45:07.030Z,45.65
2018-08-28T23:47:34.633Z,45.97
2018-08-28T23:50:02.312Z,46.27
2018-08-28T23:52:29.939Z,46.61
2018-08-28T23:54:57.558Z,46.31
2018-08-28T23:57:25.218Z,46.43
2018-08-28T23:59:52.824Z,45.96
